createdAt,value
2018-08-20T00:00:17.828Z,1012.61
2018-08-20T00:01:17.810Z,1012.61
2018-08-20T00:02:17.795Z,1012.55
2018-08-20T00:03:17.788Z,1012.61
2018-08-20T00:04:17.773Z,1012.60
2018-08-20T00:05:17.758Z,1012.62
2018-08-20T00:06:17.743Z,1012.64
2018-08-20T00:07:17.732Z,1012.60
2018-08-20T00:08:17.718Z,1012.55
2018-08-20T00:09:17.702Z,1012.57
2018-08-20T00:10:17.689Z,1012.53
2018-08-20T00:11:17.679Z,1012.51
2018-08-20T00:12:17.664Z,1012.49
2018-08-20T00:13:17.650Z,1012.50
2018-08-20T00:14:17.637Z,1012.56
2018-08-20T00:15:17.625Z,1012.58
2018-08-20T00:16:17.615Z,1012.58
2018-08-20T00:17:17.597Z,1012.58
2018-08-20T00:18:17.583Z,1012.53
2018-08-20T00:19:17.571Z,1012.57
2018-08-20T00:20:17.560Z,1012.56
2018-08-20T00:21:17.544Z,1012.57
2018-08-20T00:22:17.531Z,1012.58
2018-08-20T00:23:17.517Z,1012.53
2018-08-20T00:24:17.507Z,1012.57
2018-08-20T00:25:17.497Z,1012.55
2018-08-20T00:26:17.477Z,1012.55
2018-08-20T00:27:17.473Z,1012.57
2018-08-20T00:28:17.453Z,1012.53
2018-08-20T00:29:17.442Z,1012.52
2018-08-20T00:30:17.431Z,1012.53
2018-08-20T00:31:17.413Z,1012.50
2018-08-20T00:32:17.399Z,1012.50
2018-08-20T00:33:17.383Z,1012.46
2018-08-20T00:34:17.376Z,1012.49
2018-08-20T00:35:17.356Z,1012.54
2018-08-20T00:36:17.343Z,1012.54
2018-08-20T00:37:17.330Z,1012.51
2018-08-20T00:38:17.316Z,1012.50
2018-08-20T00:39:17.303Z,1012.53
2018-08-20T00:40:17.293Z,1012.54
2018-08-20T00:41:17.276Z,1012.50
2018-08-20T00:42:17.264Z,1012.50
2018-08-20T00:43:17.250Z,1012.54
2018-08-20T00:44:17.237Z,1012.52
2018-08-20T00:45:17.222Z,1012.53
2018-08-20T00:46:17.210Z,1012.55
2018-08-20T00:47:17.198Z,1012.53
2018-08-20T00:48:17.185Z,1012.51
2018-08-20T00:49:17.167Z,1012.53
2018-08-20T00:50:17.155Z,1012.51
2018-08-20T00:51:17.143Z,1012.51
2018-08-20T00:52:17.128Z,1012.50
2018-08-20T00:53:17.115Z,1012.47
2018-08-20T00:54:17.105Z,1012.47
2018-08-20T00:55:17.088Z,1012.48
2018-08-20T00:56:17.073Z,1012.51
2018-08-20T00:57:17.062Z,1012.48
2018-08-20T00:58:17.048Z,1012.53
2018-08-20T00:59:17.049Z,1012.50
2018-08-20T01:00:17.022Z,1012.50
2018-08-20T01:01:17.005Z,1012.53
2018-08-20T01:02:16.994Z,1012.54
2018-08-20T01:03:16.981Z,1012.55
2018-08-20T01:04:17.017Z,1012.50
2018-08-20T01:05:16.952Z,1012.51
2018-08-20T01:06:16.941Z,1012.51
2018-08-20T01:07:16.926Z,1012.52
2018-08-20T01:08:16.912Z,1012.51
2018-08-20T01:09:16.899Z,1012.56
2018-08-20T01:10:16.884Z,1012.53
2018-08-20T01:11:16.877Z,1012.55
2018-08-20T01:12:16.910Z,1012.53
2018-08-20T01:13:16.844Z,1012.52
2018-08-20T01:14:16.829Z,1012.50
2018-08-20T01:15:16.825Z,1012.51
2018-08-20T01:16:16.805Z,1012.51
2018-08-20T01:17:16.788Z,1012.54
2018-08-20T01:18:16.776Z,1012.51
2018-08-20T01:19:16.766Z,1012.50
2018-08-20T01:20:16.752Z,1012.49
2018-08-20T01:21:16.743Z,1012.47
2018-08-20T01:22:16.721Z,1012.48
2018-08-20T01:23:16.707Z,1012.52
2018-08-20T01:24:16.693Z,1012.50
2018-08-20T01:25:16.680Z,1012.57
2018-08-20T01:26:16.666Z,1012.53
2018-08-20T01:27:16.655Z,1012.56
2018-08-20T01:28:16.689Z,1012.55
2018-08-20T01:29:16.626Z,1012.55
2018-08-20T01:30:16.613Z,1012.50
2018-08-20T01:31:16.599Z,1012.50
2018-08-20T01:32:16.587Z,1012.47
2018-08-20T01:33:16.571Z,1012.47
2018-08-20T01:34:16.557Z,1012.47
2018-08-20T01:35:16.543Z,1012.50
2018-08-20T01:36:16.533Z,1012.45
2018-08-20T01:37:16.518Z,1012.47
2018-08-20T01:38:16.502Z,1012.45
2018-08-20T01:39:16.489Z,1012.45
2018-08-20T01:40:16.475Z,1012.47
2018-08-20T01:41:16.462Z,1012.43
2018-08-20T01:42:16.447Z,1012.42
2018-08-20T01:43:16.433Z,1012.41
2018-08-20T01:44:16.521Z,1012.40
2018-08-20T01:45:16.412Z,1012.43
2018-08-20T01:46:16.393Z,1012.42
2018-08-20T01:47:16.379Z,1012.44
2018-08-20T01:48:16.367Z,1012.41
2018-08-20T01:49:16.351Z,1012.44
2018-08-20T01:50:16.337Z,1012.45
2018-08-20T01:51:16.325Z,1012.44
2018-08-20T01:52:16.312Z,1012.45
2018-08-20T01:53:16.296Z,1012.45
2018-08-20T01:54:16.284Z,1012.46
2018-08-20T01:55:16.284Z,1012.41
2018-08-20T01:56:16.256Z,1012.43
2018-08-20T01:57:16.242Z,1012.42
2018-08-20T01:58:16.234Z,1012.40
2018-08-20T01:59:16.214Z,1012.39
2018-08-20T02:00:16.208Z,1012.33
2018-08-20T02:01:16.201Z,1012.38
2018-08-20T02:02:16.175Z,1012.32
2018-08-20T02:03:16.167Z,1012.31
2018-08-20T02:04:16.147Z,1012.33
2018-08-20T02:05:16.133Z,1012.32
2018-08-20T02:06:16.119Z,1012.31
2018-08-20T02:07:16.104Z,1012.31
2018-08-20T02:08:16.093Z,1012.33
2018-08-20T02:09:16.077Z,1012.29
2018-08-20T02:10:16.065Z,1012.28
2018-08-20T02:11:16.052Z,1012.26
2018-08-20T02:12:16.037Z,1012.28
2018-08-20T02:13:16.023Z,1012.30
2018-08-20T02:14:16.010Z,1012.31
2018-08-20T02:15:15.997Z,1012.31
2018-08-20T02:16:15.984Z,1012.30
2018-08-20T02:17:15.969Z,1012.32
2018-08-20T02:18:15.956Z,1012.31
2018-08-20T02:19:15.943Z,1012.29
2018-08-20T02:20:15.929Z,1012.29
2018-08-20T02:21:15.913Z,1012.29
2018-08-20T02:22:15.901Z,1012.28
2018-08-20T02:23:15.887Z,1012.24
2018-08-20T02:24:15.875Z,1012.25
2018-08-20T02:25:15.859Z,1012.21
2018-08-20T02:26:15.846Z,1012.18
2018-08-20T02:27:15.842Z,1012.20
2018-08-20T02:28:15.817Z,1012.20
2018-08-20T02:29:15.805Z,1012.23
2018-08-20T02:30:15.795Z,1012.21
2018-08-20T02:31:15.785Z,1012.23
2018-08-20T02:32:15.766Z,1012.23
2018-08-20T02:33:15.750Z,1012.21
2018-08-20T02:34:15.734Z,1012.21
2018-08-20T02:35:15.723Z,1012.21
2018-08-20T02:36:15.712Z,1012.22
2018-08-20T02:37:15.699Z,1012.23
2018-08-20T02:38:15.682Z,1012.22
2018-08-20T02:39:15.673Z,1012.19
2018-08-20T02:40:15.655Z,1012.24
2018-08-20T02:41:15.639Z,1012.19
2018-08-20T02:42:15.627Z,1012.20
2018-08-20T02:43:15.613Z,1012.19
2018-08-20T02:44:15.600Z,1012.22
2018-08-20T02:45:15.588Z,1012.24
2018-08-20T02:46:15.591Z,1012.25
2018-08-20T02:47:15.560Z,1012.23
2018-08-20T02:48:15.542Z,1012.24
2018-08-20T02:49:15.529Z,1012.21
2018-08-20T02:50:15.515Z,1012.24
2018-08-20T02:51:15.501Z,1012.23
2018-08-20T02:52:15.498Z,1012.19
2018-08-20T02:53:15.474Z,1012.21
2018-08-20T02:54:15.460Z,1012.18
2018-08-20T02:55:15.446Z,1012.20
2018-08-20T02:56:15.433Z,1012.23
2018-08-20T02:57:15.420Z,1012.20
2018-08-20T02:58:15.405Z,1012.20
2018-08-20T02:59:15.392Z,1012.16
2018-08-20T03:00:15.376Z,1012.18
2018-08-20T03:01:15.376Z,1012.17
2018-08-20T03:02:15.354Z,1012.14
2018-08-20T03:03:15.344Z,1012.15
2018-08-20T03:04:15.372Z,1012.13
2018-08-20T03:05:15.309Z,1012.12
2018-08-20T03:06:15.299Z,1012.13
2018-08-20T03:07:15.387Z,1012.12
2018-08-20T03:08:15.270Z,1012.12
2018-08-20T03:09:15.257Z,1012.12
2018-08-20T03:10:15.239Z,1012.14
2018-08-20T03:11:15.225Z,1012.14
2018-08-20T03:12:15.213Z,1012.15
2018-08-20T03:13:15.196Z,1012.16
2018-08-20T03:14:15.183Z,1012.16
2018-08-20T03:15:15.168Z,1012.14
2018-08-20T03:16:15.157Z,1012.14
2018-08-20T03:17:15.148Z,1012.15
2018-08-20T03:18:15.128Z,1012.15
2018-08-20T03:19:15.113Z,1012.16
2018-08-20T03:20:15.100Z,1012.14
2018-08-20T03:21:15.089Z,1012.15
2018-08-20T03:22:15.070Z,1012.15
2018-08-20T03:23:15.059Z,1012.14
2018-08-20T03:24:15.045Z,1012.13
2018-08-20T03:25:15.030Z,1012.12
2018-08-20T03:26:15.016Z,1012.10
2018-08-20T03:27:15.001Z,1012.14
2018-08-20T03:28:14.988Z,1012.15
2018-08-20T03:29:14.976Z,1012.13
2018-08-20T03:30:14.961Z,1012.16
2018-08-20T03:31:14.947Z,1012.15
2018-08-20T03:32:14.943Z,1012.14
2018-08-20T03:33:14.919Z,1012.17
2018-08-20T03:34:14.908Z,1012.15
2018-08-20T03:35:14.892Z,1012.18
2018-08-20T03:36:14.877Z,1012.14
2018-08-20T03:37:14.864Z,1012.15
2018-08-20T03:38:14.850Z,1012.16
2018-08-20T03:39:14.835Z,1012.15
2018-08-20T03:40:14.822Z,1012.14
2018-08-20T03:41:14.808Z,1012.16
2018-08-20T03:42:14.803Z,1012.19
2018-08-20T03:43:14.781Z,1012.14
2018-08-20T03:44:14.764Z,1012.18
2018-08-20T03:45:14.752Z,1012.18
2018-08-20T03:46:14.737Z,1012.20
2018-08-20T03:47:14.732Z,1012.21
2018-08-20T03:48:14.712Z,1012.20
2018-08-20T03:49:14.698Z,1012.20
2018-08-20T03:50:14.684Z,1012.21
2018-08-20T03:51:14.668Z,1012.22
2018-08-20T03:52:14.656Z,1012.18
2018-08-20T03:53:14.642Z,1012.18
2018-08-20T03:54:14.627Z,1012.22
2018-08-20T03:55:14.614Z,1012.20
2018-08-20T03:56:14.619Z,1012.22
2018-08-20T03:57:14.585Z,1012.23
2018-08-20T03:58:14.568Z,1012.21
2018-08-20T03:59:14.557Z,1012.25
2018-08-20T04:00:14.543Z,1012.23
2018-08-20T04:01:14.528Z,1012.25
2018-08-20T04:02:14.521Z,1012.26
2018-08-20T04:03:14.502Z,1012.23
2018-08-20T04:04:14.487Z,1012.24
2018-08-20T04:05:14.474Z,1012.27
2018-08-20T04:06:14.465Z,1012.28
2018-08-20T04:07:14.445Z,1012.28
2018-08-20T04:08:14.431Z,1012.30
2018-08-20T04:09:14.467Z,1012.28
2018-08-20T04:10:14.406Z,1012.26
2018-08-20T04:11:14.389Z,1012.27
2018-08-20T04:12:14.425Z,1012.25
2018-08-20T04:13:14.360Z,1012.26
2018-08-20T04:14:14.348Z,1012.24
2018-08-20T04:15:14.340Z,1012.27
2018-08-20T04:16:14.321Z,1012.29
2018-08-20T04:17:14.305Z,1012.25
2018-08-20T04:18:14.290Z,1012.24
2018-08-20T04:19:14.285Z,1012.24
2018-08-20T04:20:14.262Z,1012.23
2018-08-20T04:21:14.250Z,1012.22
2018-08-20T04:22:14.235Z,1012.18
2018-08-20T04:23:14.221Z,1012.16
2018-08-20T04:24:14.207Z,1012.11
2018-08-20T04:25:14.191Z,1012.17
2018-08-20T04:26:14.177Z,1012.10
2018-08-20T04:27:14.165Z,1012.08
2018-08-20T04:28:14.152Z,1012.07
2018-08-20T04:29:14.136Z,1012.06
2018-08-20T04:30:14.122Z,1012.11
2018-08-20T04:31:14.108Z,1012.10
2018-08-20T04:32:14.095Z,1012.13
2018-08-20T04:33:14.110Z,1012.14
2018-08-20T04:34:14.072Z,1012.12
2018-08-20T04:35:14.052Z,1012.05
2018-08-20T04:36:14.040Z,1012.03
2018-08-20T04:37:14.027Z,1012.10
2018-08-20T04:38:14.011Z,1012.18
2018-08-20T04:39:13.997Z,1012.22
2018-08-20T04:40:13.985Z,1012.21
2018-08-20T04:41:13.974Z,1012.19
2018-08-20T04:42:14.063Z,1012.19
2018-08-20T04:43:13.944Z,1012.20
2018-08-20T04:44:13.929Z,1012.19
2018-08-20T04:45:13.911Z,1012.12
2018-08-20T04:46:13.899Z,1012.14
2018-08-20T04:47:13.886Z,1012.15
2018-08-20T04:48:13.869Z,1012.17
2018-08-20T04:49:13.867Z,1012.14
2018-08-20T04:50:14.028Z,1012.19
2018-08-20T04:51:13.949Z,1012.15
2018-08-20T04:52:13.825Z,1012.18
2018-08-20T04:53:13.799Z,1012.17
2018-08-20T04:54:13.786Z,1012.17
2018-08-20T04:55:13.822Z,1012.19
2018-08-20T04:56:13.759Z,1012.13
2018-08-20T04:57:13.746Z,1012.13
2018-08-20T04:58:13.729Z,1012.16
2018-08-20T04:59:13.716Z,1012.15
2018-08-20T05:00:13.712Z,1012.13
2018-08-20T05:01:13.688Z,1012.13
2018-08-20T05:02:13.674Z,1012.12
2018-08-20T05:03:13.659Z,1012.17
2018-08-20T05:04:13.650Z,1012.18
2018-08-20T05:05:13.630Z,1012.19
2018-08-20T05:06:13.620Z,1012.20
2018-08-20T05:07:13.607Z,1012.21
2018-08-20T05:08:13.594Z,1012.20
2018-08-20T05:09:13.576Z,1012.21
2018-08-20T05:10:13.562Z,1012.21
2018-08-20T05:11:13.549Z,1012.22
2018-08-20T05:12:13.534Z,1012.28
2018-08-20T05:13:13.520Z,1012.27
2018-08-20T05:14:13.517Z,1012.28
2018-08-20T05:15:13.492Z,1012.27
2018-08-20T05:16:13.479Z,1012.28
2018-08-20T05:17:13.464Z,1012.32
2018-08-20T05:18:13.451Z,1012.35
2018-08-20T05:19:13.438Z,1012.35
2018-08-20T05:20:13.422Z,1012.34
2018-08-20T05:21:13.408Z,1012.38
2018-08-20T05:22:13.396Z,1012.38
2018-08-20T05:23:13.380Z,1012.37
2018-08-20T05:24:13.369Z,1012.36
2018-08-20T05:25:13.351Z,1012.38
2018-08-20T05:26:13.339Z,1012.35
2018-08-20T05:27:13.325Z,1012.37
2018-08-20T05:28:13.313Z,1012.42
2018-08-20T05:29:13.351Z,1012.39
2018-08-20T05:30:13.286Z,1012.44
2018-08-20T05:31:13.270Z,1012.46
2018-08-20T05:32:13.255Z,1012.45
2018-08-20T05:33:13.243Z,1012.47
2018-08-20T05:34:13.231Z,1012.47
2018-08-20T05:35:13.214Z,1012.51
2018-08-20T05:36:13.200Z,1012.51
2018-08-20T05:37:13.190Z,1012.52
2018-08-20T05:38:13.174Z,1012.52
2018-08-20T05:39:13.162Z,1012.50
2018-08-20T05:40:13.143Z,1012.53
2018-08-20T05:41:13.179Z,1012.53
2018-08-20T05:42:13.132Z,1012.52
2018-08-20T05:43:13.101Z,1012.56
2018-08-20T05:44:13.090Z,1012.56
2018-08-20T05:45:13.074Z,1012.61
2018-08-20T05:46:13.058Z,1012.57
2018-08-20T05:47:13.047Z,1012.58
2018-08-20T05:48:13.033Z,1012.60
2018-08-20T05:49:13.016Z,1012.59
2018-08-20T05:50:13.005Z,1012.59
2018-08-20T05:51:12.991Z,1012.61
2018-08-20T05:52:12.976Z,1012.60
2018-08-20T05:53:12.962Z,1012.59
2018-08-20T05:54:12.953Z,1012.57
2018-08-20T05:55:12.935Z,1012.59
2018-08-20T05:56:12.923Z,1012.62
2018-08-20T05:57:12.906Z,1012.62
2018-08-20T05:58:12.893Z,1012.68
2018-08-20T05:59:12.963Z,1012.67
2018-08-20T06:00:12.868Z,1012.65
2018-08-20T06:01:12.857Z,1012.63
2018-08-20T06:02:12.841Z,1012.64
2018-08-20T06:03:12.823Z,1012.69
2018-08-20T06:04:12.813Z,1012.65
2018-08-20T06:05:12.896Z,1012.69
2018-08-20T06:06:12.784Z,1012.69
2018-08-20T06:07:12.778Z,1012.70
2018-08-20T06:08:12.756Z,1012.70
2018-08-20T06:09:12.741Z,1012.74
2018-08-20T06:10:12.727Z,1012.76
2018-08-20T06:11:12.714Z,1012.78
2018-08-20T06:12:12.701Z,1012.77
2018-08-20T06:13:12.693Z,1012.85
2018-08-20T06:14:12.677Z,1012.84
2018-08-20T06:15:12.725Z,1012.86
2018-08-20T06:16:12.650Z,1012.88
2018-08-20T06:17:12.631Z,1012.92
2018-08-20T06:18:12.616Z,1012.88
2018-08-20T06:19:12.604Z,1012.88
2018-08-20T06:20:12.592Z,1012.88
2018-08-20T06:21:12.577Z,1012.88
2018-08-20T06:22:12.564Z,1012.88
2018-08-20T06:23:12.550Z,1012.90
2018-08-20T06:24:12.536Z,1012.93
2018-08-20T06:25:12.522Z,1012.96
2018-08-20T06:26:12.508Z,1012.96
2018-08-20T06:27:12.553Z,1012.95
2018-08-20T06:28:12.481Z,1013.00
2018-08-20T06:29:12.468Z,1013.04
2018-08-20T06:30:12.461Z,1013.02
2018-08-20T06:31:12.440Z,1013.02
2018-08-20T06:32:12.426Z,1013.06
2018-08-20T06:33:12.413Z,1013.03
2018-08-20T06:34:12.399Z,1013.06
2018-08-20T06:35:12.386Z,1013.03
2018-08-20T06:36:12.373Z,1013.02
2018-08-20T06:37:12.360Z,1013.05
2018-08-20T06:38:12.345Z,1013.05
2018-08-20T06:39:12.333Z,1013.09
2018-08-20T06:40:12.330Z,1013.09
2018-08-20T06:41:12.305Z,1013.07
2018-08-20T06:42:12.291Z,1013.08
2018-08-20T06:43:12.277Z,1013.08
2018-08-20T06:44:12.265Z,1013.05
2018-08-20T06:45:12.259Z,1013.06
2018-08-20T06:46:12.237Z,1013.02
2018-08-20T06:47:12.224Z,1013.03
2018-08-20T06:48:12.223Z,1013.03
2018-08-20T06:49:12.196Z,1013.06
2018-08-20T06:50:12.183Z,1013.06
2018-08-20T06:51:12.169Z,1013.06
2018-08-20T06:52:12.157Z,1013.09
2018-08-20T06:53:12.144Z,1013.08
2018-08-20T06:54:12.128Z,1013.07
2018-08-20T06:55:12.115Z,1013.04
2018-08-20T06:56:12.103Z,1013.07
2018-08-20T06:57:12.086Z,1013.05
2018-08-20T06:58:12.075Z,1013.07
2018-08-20T06:59:12.067Z,1013.06
2018-08-20T07:00:12.048Z,1013.06
2018-08-20T07:01:12.035Z,1013.10
2018-08-20T07:02:12.022Z,1013.07
2018-08-20T07:03:12.010Z,1013.09
2018-08-20T07:04:11.996Z,1013.08
2018-08-20T07:05:11.981Z,1013.10
2018-08-20T07:06:11.977Z,1013.10
2018-08-20T07:07:12.075Z,1013.14
2018-08-20T07:08:11.951Z,1013.13
2018-08-20T07:09:11.928Z,1013.16
2018-08-20T07:10:11.916Z,1013.18
2018-08-20T07:11:11.910Z,1013.16
2018-08-20T07:12:11.888Z,1013.19
2018-08-20T07:13:11.886Z,1013.18
2018-08-20T07:14:11.864Z,1013.13
2018-08-20T07:15:11.849Z,1013.18
2018-08-20T07:16:11.835Z,1013.19
2018-08-20T07:17:11.824Z,1013.18
2018-08-20T07:18:11.810Z,1013.22
2018-08-20T07:19:11.812Z,1013.21
2018-08-20T07:20:11.783Z,1013.22
2018-08-20T07:21:11.769Z,1013.17
2018-08-20T07:22:11.764Z,1013.25
2018-08-20T07:23:11.745Z,1013.24
2018-08-20T07:24:11.732Z,1013.27
2018-08-20T07:25:11.718Z,1013.27
2018-08-20T07:26:11.705Z,1013.28
2018-08-20T07:27:11.694Z,1013.30
2018-08-20T07:28:11.681Z,1013.30
2018-08-20T07:29:11.666Z,1013.31
2018-08-20T07:30:11.653Z,1013.31
2018-08-20T07:31:11.641Z,1013.30
2018-08-20T07:32:11.629Z,1013.32
2018-08-20T07:33:11.614Z,1013.36
2018-08-20T07:34:11.602Z,1013.33
2018-08-20T07:35:11.589Z,1013.40
2018-08-20T07:36:11.580Z,1013.35
2018-08-20T07:37:11.569Z,1013.38
2018-08-20T07:38:11.551Z,1013.36
2018-08-20T07:39:11.539Z,1013.37
2018-08-20T07:40:11.527Z,1013.37
2018-08-20T07:41:11.512Z,1013.37
2018-08-20T07:42:11.500Z,1013.38
2018-08-20T07:43:11.488Z,1013.38
2018-08-20T07:44:11.475Z,1013.40
2018-08-20T07:45:11.470Z,1013.36
2018-08-20T07:46:11.449Z,1013.41
2018-08-20T07:47:11.445Z,1013.38
2018-08-20T07:48:11.434Z,1013.42
2018-08-20T07:49:11.412Z,1013.46
2018-08-20T07:50:11.404Z,1013.46
2018-08-20T07:51:11.392Z,1013.45
2018-08-20T07:52:11.376Z,1013.44
2018-08-20T07:53:11.363Z,1013.47
2018-08-20T07:54:11.372Z,1013.51
2018-08-20T07:55:11.338Z,1013.50
2018-08-20T07:56:11.334Z,1013.52
2018-08-20T07:57:11.313Z,1013.58
2018-08-20T07:58:11.309Z,1013.59
2018-08-20T07:59:11.289Z,1013.56
2018-08-20T08:00:11.278Z,1013.55
2018-08-20T08:01:11.264Z,1013.57
2018-08-20T08:02:11.253Z,1013.58
2018-08-20T08:03:11.250Z,1013.58
2018-08-20T08:04:11.243Z,1013.60
2018-08-20T08:05:11.215Z,1013.64
2018-08-20T08:06:11.204Z,1013.62
2018-08-20T08:07:11.191Z,1013.65
2018-08-20T08:08:11.185Z,1013.67
2018-08-20T08:09:11.166Z,1013.64
2018-08-20T08:10:11.155Z,1013.66
2018-08-20T08:11:11.144Z,1013.70
2018-08-20T08:12:11.136Z,1013.72
2018-08-20T08:13:11.119Z,1013.72
2018-08-20T08:14:11.118Z,1013.73
2018-08-20T08:15:11.110Z,1013.76
2018-08-20T08:16:11.084Z,1013.80
2018-08-20T08:17:11.080Z,1013.83
2018-08-20T08:18:11.058Z,1013.80
2018-08-20T08:19:11.048Z,1013.81
2018-08-20T08:20:11.038Z,1013.80
2018-08-20T08:21:11.023Z,1013.80
2018-08-20T08:22:11.015Z,1013.80
2018-08-20T08:23:11.001Z,1013.80
2018-08-20T08:24:10.993Z,1013.80
2018-08-20T08:25:10.985Z,1013.85
2018-08-20T08:26:10.975Z,1013.83
2018-08-20T08:27:10.953Z,1013.83
2018-08-20T08:28:10.945Z,1013.79
2018-08-20T08:29:10.942Z,1013.83
2018-08-20T08:30:10.919Z,1013.87
2018-08-20T08:31:10.909Z,1013.85
2018-08-20T08:32:10.902Z,1013.86
2018-08-20T08:33:10.914Z,1013.89
2018-08-20T08:34:10.869Z,1013.89
2018-08-20T08:35:10.859Z,1013.86
2018-08-20T08:36:10.855Z,1013.87
2018-08-20T08:37:10.850Z,1013.84
2018-08-20T08:38:10.912Z,1013.83
2018-08-20T08:39:10.812Z,1013.85
2018-08-20T08:40:10.800Z,1013.87
2018-08-20T08:41:10.786Z,1013.87
2018-08-20T08:42:10.773Z,1013.82
2018-08-20T08:43:10.768Z,1013.85
2018-08-20T08:44:10.754Z,1013.89
2018-08-20T08:45:10.739Z,1013.87
2018-08-20T08:46:10.724Z,1013.89
2018-08-20T08:47:10.716Z,1013.90
2018-08-20T08:48:10.707Z,1013.94
2018-08-20T08:49:10.740Z,1013.90
2018-08-20T08:50:10.687Z,1013.91
2018-08-20T08:51:10.672Z,1013.91
2018-08-20T08:52:10.654Z,1013.91
2018-08-20T08:53:10.644Z,1013.89
2018-08-20T08:54:10.637Z,1013.95
2018-08-20T08:55:10.639Z,1013.91
2018-08-20T08:56:10.605Z,1013.90
2018-08-20T08:57:10.595Z,1013.92
2018-08-20T08:58:10.583Z,1013.93
2018-08-20T08:59:10.573Z,1013.98
2018-08-20T09:00:10.563Z,1014.02
2018-08-20T09:01:10.616Z,1013.96
2018-08-20T09:02:10.536Z,1014.00
2018-08-20T09:03:10.531Z,1014.03
2018-08-20T09:04:10.514Z,1014.09
2018-08-20T09:05:10.653Z,1014.11
2018-08-20T09:06:10.491Z,1014.08
2018-08-20T09:07:10.479Z,1014.03
2018-08-20T09:08:10.472Z,1014.04
2018-08-20T09:09:10.457Z,1014.13
2018-08-20T09:10:10.446Z,1014.12
2018-08-20T09:11:10.440Z,1014.10
2018-08-20T09:12:10.425Z,1014.11
2018-08-20T09:13:10.415Z,1014.06
2018-08-20T09:14:10.407Z,1014.07
2018-08-20T09:15:10.399Z,1014.03
2018-08-20T09:16:10.390Z,1014.00
2018-08-20T09:17:10.372Z,1014.01
2018-08-20T09:18:10.370Z,1014.02
2018-08-20T09:19:10.357Z,1014.01
2018-08-20T09:20:10.345Z,1014.00
2018-08-20T09:21:10.336Z,1013.94
2018-08-20T09:22:10.317Z,1013.97
2018-08-20T09:23:10.309Z,1014.00
2018-08-20T09:24:10.298Z,1013.99
2018-08-20T09:25:10.287Z,1014.05
2018-08-20T09:26:10.276Z,1014.05
2018-08-20T09:27:10.263Z,1014.00
2018-08-20T09:28:10.253Z,1014.02
2018-08-20T09:29:10.252Z,1014.01
2018-08-20T09:30:10.235Z,1013.99
2018-08-20T09:31:10.221Z,1014.04
2018-08-20T09:32:10.266Z,1014.01
2018-08-20T09:33:10.202Z,1014.04
2018-08-20T09:34:10.197Z,1014.06
2018-08-20T09:35:10.180Z,1014.07
2018-08-20T09:36:10.168Z,1014.14
2018-08-20T09:37:10.167Z,1014.10
2018-08-20T09:38:10.207Z,1014.10
2018-08-20T09:39:10.139Z,1014.10
2018-08-20T09:40:10.143Z,1014.12
2018-08-20T09:41:11.137Z,1014.10
2018-08-20T09:42:10.110Z,1014.12
2018-08-20T09:43:10.099Z,1014.10
2018-08-20T09:44:10.090Z,1014.10
2018-08-20T09:45:10.087Z,1014.10
2018-08-20T09:46:10.071Z,1014.09
2018-08-20T09:47:10.067Z,1014.03
2018-08-20T09:48:10.051Z,1014.02
2018-08-20T09:49:10.043Z,1013.98
2018-08-20T09:50:10.036Z,1013.97
2018-08-20T09:51:10.025Z,1014.00
2018-08-20T09:52:10.022Z,1014.02
2018-08-20T09:53:10.005Z,1013.96
2018-08-20T09:54:10.004Z,1013.95
2018-08-20T09:55:09.988Z,1013.89
2018-08-20T09:56:09.975Z,1013.85
2018-08-20T09:57:09.967Z,1013.85
2018-08-20T09:58:10.769Z,1013.85
2018-08-20T09:59:10.061Z,1013.81
2018-08-20T10:00:09.939Z,1013.83
2018-08-20T10:01:09.928Z,1013.85
2018-08-20T10:02:09.931Z,1013.85
2018-08-20T10:03:09.907Z,1013.80
2018-08-20T10:04:09.904Z,1013.80
2018-08-20T10:05:09.889Z,1013.77
2018-08-20T10:06:09.878Z,1013.81
2018-08-20T10:07:09.876Z,1013.85
2018-08-20T10:08:09.857Z,1013.81
2018-08-20T10:09:09.848Z,1013.77
2018-08-20T10:10:09.834Z,1013.79
2018-08-20T10:11:09.825Z,1013.85
2018-08-20T10:12:09.824Z,1013.89
2018-08-20T10:13:09.805Z,1013.85
2018-08-20T10:14:09.801Z,1013.84
2018-08-20T10:15:09.783Z,1013.84
2018-08-20T10:16:09.775Z,1013.86
2018-08-20T10:17:09.759Z,1013.86
2018-08-20T10:18:09.748Z,1013.86
2018-08-20T10:19:09.738Z,1013.83
2018-08-20T10:20:09.727Z,1013.85
2018-08-20T10:21:09.717Z,1013.89
2018-08-20T10:22:09.703Z,1013.89
2018-08-20T10:23:09.692Z,1013.89
2018-08-20T10:24:09.683Z,1013.88
2018-08-20T10:25:09.667Z,1013.85
2018-08-20T10:26:09.656Z,1013.88
2018-08-20T10:27:09.646Z,1013.86
2018-08-20T10:28:09.636Z,1013.92
2018-08-20T10:29:09.631Z,1013.92
2018-08-20T10:30:09.622Z,1013.94
2018-08-20T10:31:09.598Z,1013.97
2018-08-20T10:32:09.705Z,1013.96
2018-08-20T10:33:09.577Z,1014.02
2018-08-20T10:34:09.570Z,1014.05
2018-08-20T10:35:09.552Z,1014.04
2018-08-20T10:36:09.540Z,1014.05
2018-08-20T10:37:09.527Z,1014.02
2018-08-20T10:38:09.522Z,1014.01
2018-08-20T10:39:09.506Z,1014.05
2018-08-20T10:40:09.503Z,1014.02
2018-08-20T10:41:09.480Z,1014.09
2018-08-20T10:42:09.467Z,1014.08
2018-08-20T10:43:09.455Z,1014.04
2018-08-20T10:44:09.444Z,1014.06
2018-08-20T10:45:09.432Z,1014.02
2018-08-20T10:46:09.419Z,1014.01
2018-08-20T10:47:09.406Z,1014.03
2018-08-20T10:48:09.411Z,1014.03
2018-08-20T10:49:09.390Z,1014.01
2018-08-20T10:50:09.485Z,1014.01
2018-08-20T10:51:09.358Z,1014.05
2018-08-20T10:52:09.354Z,1014.04
2018-08-20T10:53:09.334Z,1013.96
2018-08-20T10:54:09.323Z,1013.98
2018-08-20T10:55:09.314Z,1013.97
2018-08-20T10:56:09.302Z,1013.94
2018-08-20T10:57:09.289Z,1013.95
2018-08-20T10:58:09.274Z,1013.95
2018-08-20T10:59:09.272Z,1013.99
2018-08-20T11:00:09.250Z,1014.00
2018-08-20T11:01:09.238Z,1013.99
2018-08-20T11:02:09.338Z,1014.03
2018-08-20T11:03:09.212Z,1014.04
2018-08-20T11:04:09.209Z,1014.05
2018-08-20T11:05:09.188Z,1014.09
2018-08-20T11:06:09.175Z,1014.10
2018-08-20T11:07:09.164Z,1014.12
2018-08-20T11:08:09.169Z,1014.14
2018-08-20T11:09:09.137Z,1014.11
2018-08-20T11:10:09.208Z,1014.13
2018-08-20T11:11:09.120Z,1014.19
2018-08-20T11:12:09.103Z,1014.21
2018-08-20T11:13:09.090Z,1014.21
2018-08-20T11:14:09.078Z,1014.22
2018-08-20T11:15:09.068Z,1014.21
2018-08-20T11:16:09.053Z,1014.26
2018-08-20T11:17:09.041Z,1014.32
2018-08-20T11:18:09.031Z,1014.28
2018-08-20T11:19:09.018Z,1014.30
2018-08-20T11:20:09.007Z,1014.28
2018-08-20T11:21:08.994Z,1014.29
2018-08-20T11:22:08.982Z,1014.35
2018-08-20T11:23:08.971Z,1014.33
2018-08-20T11:24:08.960Z,1014.34
2018-08-20T11:25:08.959Z,1014.34
2018-08-20T11:26:08.937Z,1014.36
2018-08-20T11:27:08.924Z,1014.32
2018-08-20T11:28:08.917Z,1014.32
2018-08-20T11:29:08.900Z,1014.29
2018-08-20T11:30:08.904Z,1014.29
2018-08-20T11:31:08.883Z,1014.28
2018-08-20T11:32:08.867Z,1014.30
2018-08-20T11:33:08.854Z,1014.29
2018-08-20T11:34:08.843Z,1014.30
2018-08-20T11:35:08.831Z,1014.36
2018-08-20T11:36:08.823Z,1014.34
2018-08-20T11:37:08.811Z,1014.31
2018-08-20T11:38:08.802Z,1014.30
2018-08-20T11:39:08.790Z,1014.33
2018-08-20T11:40:08.779Z,1014.31
2018-08-20T11:41:08.766Z,1014.28
2018-08-20T11:42:08.807Z,1014.32
2018-08-20T11:43:08.802Z,1014.32
2018-08-20T11:44:08.734Z,1014.31
2018-08-20T11:45:08.719Z,1014.29
2018-08-20T11:46:08.708Z,1014.33
2018-08-20T11:47:08.705Z,1014.31
2018-08-20T11:48:08.692Z,1014.33
2018-08-20T11:49:08.693Z,1014.29
2018-08-20T11:50:08.663Z,1014.25
2018-08-20T11:51:08.653Z,1014.28
2018-08-20T11:52:08.640Z,1014.27
2018-08-20T11:53:08.632Z,1014.29
2018-08-20T11:54:08.620Z,1014.24
2018-08-20T11:55:08.605Z,1014.23
2018-08-20T11:56:08.598Z,1014.16
2018-08-20T11:57:08.593Z,1014.18
2018-08-20T11:58:08.673Z,1014.22
2018-08-20T11:59:08.626Z,1014.19
2018-08-20T12:00:08.568Z,1014.15
2018-08-20T12:01:08.541Z,1014.14
2018-08-20T12:02:08.530Z,1014.16
2018-08-20T12:03:08.530Z,1014.14
2018-08-20T12:04:08.511Z,1014.18
2018-08-20T12:05:08.505Z,1014.15